createdAt,value
2023-02-24T00:00:33.000Z,84.14
2023-02-24T00:01:38.000Z,84.10
2023-02-24T00:02:29.000Z,84.01
2023-02-24T00:03:29.000Z,83.97
2023-02-24T00:04:33.000Z,84.05
2023-02-24T00:05:29.000Z,84.09
2023-02-24T00:06:37.000Z,84.23
2023-02-24T00:07:29.000Z,84.28
2023-02-24T00:08:29.000Z,84.17
2023-02-24T00:09:31.000Z,84.16
2023-02-24T00:10:29.000Z,84.34
2023-02-24T00:11:29.000Z,84.03
2023-02-24T00:12:29.000Z,84.27
2023-02-24T00:13:29.000Z,84.22
2023-02-24T00:14:33.000Z,84.21
2023-02-24T00:15:29.000Z,84.52
2023-02-24T00:16:29.000Z,84.10
2023-02-24T00:17:29.000Z,84.33
2023-02-24T00:18:32.000Z,84.36
2023-02-24T00:19:31.000Z,84.10
2023-02-24T00:20:33.000Z,84.11
2023-02-24T00:21:29.000Z,84.05
2023-02-24T00:22:29.000Z,84.25
2023-02-24T00:23:29.000Z,84.09
2023-02-24T00:24:30.000Z,84.12
2023-02-24T00:25:29.000Z,84.16
2023-02-24T00:26:29.000Z,84.20
2023-02-24T00:27:29.000Z,84.01
2023-02-24T00:28:30.000Z,84.09
2023-02-24T00:29:29.000Z,83.94
2023-02-24T00:30:31.000Z,84.17
2023-02-24T00:31:29.000Z,84.07
2023-02-24T00:32:28.000Z,84.29
2023-02-24T00:33:29.000Z,84.21
2023-02-24T00:34:31.000Z,83.91
2023-02-24T00:35:28.000Z,83.90
2023-02-24T00:36:29.000Z,84.29
2023-02-24T00:37:28.000Z,84.29
2023-02-24T00:38:35.000Z,83.88
2023-02-24T00:39:28.000Z,83.80
2023-02-24T00:40:29.000Z,83.92
2023-02-24T00:41:30.000Z,83.78
2023-02-24T00:42:28.000Z,83.92
2023-02-24T00:43:28.000Z,84.02
2023-02-24T00:44:38.000Z,84.13
2023-02-24T00:45:34.000Z,84.34
2023-02-24T00:46:36.000Z,83.87
2023-02-24T00:47:28.000Z,83.85
2023-02-24T00:48:29.000Z,83.55
2023-02-24T00:49:29.000Z,83.74
2023-02-24T00:50:29.000Z,83.48
2023-02-24T00:51:33.000Z,83.27
2023-02-24T00:52:28.000Z,83.31
2023-02-24T00:53:28.000Z,82.77
2023-02-24T00:54:33.000Z,82.83
2023-02-24T00:55:34.000Z,83.01
2023-02-24T00:56:29.000Z,83.10
2023-02-24T00:57:28.000Z,83.27
2023-02-24T00:58:30.000Z,83.24
2023-02-24T00:59:28.000Z,82.95
2023-02-24T01:00:30.000Z,83.02
2023-02-24T01:01:31.000Z,82.68
2023-02-24T01:02:29.000Z,82.91
2023-02-24T01:03:30.000Z,82.71
2023-02-24T01:04:29.000Z,82.65
2023-02-24T01:05:29.000Z,82.49
2023-02-24T01:06:29.000Z,82.28
2023-02-24T01:07:29.000Z,82.87
2023-02-24T01:08:29.000Z,83.13
2023-02-24T01:09:30.000Z,82.59
2023-02-24T01:10:29.000Z,82.59
2023-02-24T01:11:34.000Z,82.61
2023-02-24T01:12:34.000Z,82.79
2023-02-24T01:13:28.000Z,82.63
2023-02-24T01:14:31.000Z,82.38
2023-02-24T01:15:29.000Z,82.48
2023-02-24T01:16:29.000Z,82.56
2023-02-24T01:17:29.000Z,82.62
2023-02-24T01:18:29.000Z,82.85
2023-02-24T01:19:30.000Z,82.61
2023-02-24T01:20:29.000Z,82.79
2023-02-24T01:21:30.000Z,82.86
2023-02-24T01:22:28.000Z,83.08
2023-02-24T01:23:29.000Z,83.01
2023-02-24T01:24:32.000Z,82.83
2023-02-24T01:25:29.000Z,82.59
2023-02-24T01:26:29.000Z,82.52
2023-02-24T01:27:30.000Z,82.61
2023-02-24T01:28:29.000Z,82.72
2023-02-24T01:29:29.000Z,82.43
2023-02-24T01:30:29.000Z,82.67
2023-02-24T01:31:29.000Z,82.73
2023-02-24T01:32:30.000Z,82.64
2023-02-24T01:33:30.000Z,82.87
2023-02-24T01:34:28.000Z,82.71
2023-02-24T01:35:29.000Z,82.81
2023-02-24T01:36:31.000Z,83.06
2023-02-24T01:37:28.000Z,82.96
2023-02-24T01:38:28.000Z,83.17
2023-02-24T01:39:28.000Z,83.26
2023-02-24T01:40:28.000Z,83.30
2023-02-24T01:41:29.000Z,83.53
2023-02-24T01:42:28.000Z,83.45
2023-02-24T01:43:32.000Z,83.23
2023-02-24T01:45:01.000Z,83.61
2023-02-24T01:45:28.000Z,83.46
2023-02-24T01:46:32.000Z,83.18
2023-02-24T01:47:29.000Z,83.43
2023-02-24T01:48:28.000Z,83.50
2023-02-24T01:49:36.000Z,83.54
2023-02-24T01:50:31.000Z,83.56
2023-02-24T01:51:32.000Z,83.69
2023-02-24T01:52:33.000Z,83.40
2023-02-24T01:53:29.000Z,83.78
2023-02-24T01:54:32.000Z,83.67
2023-02-24T01:55:45.000Z,83.43
2023-02-24T01:56:29.000Z,83.62
2023-02-24T01:57:32.000Z,83.94
2023-02-24T01:58:28.000Z,83.77
2023-02-24T01:59:28.000Z,83.78
2023-02-24T02:00:37.000Z,83.78
2023-02-24T02:01:29.000Z,84.09
2023-02-24T02:02:28.000Z,83.94
2023-02-24T02:03:32.000Z,83.71
2023-02-24T02:04:39.000Z,83.77
2023-02-24T02:05:29.000Z,83.97
2023-02-24T02:06:29.000Z,84.01
2023-02-24T02:07:29.000Z,83.87
2023-02-24T02:08:30.000Z,83.90
2023-02-24T02:09:30.000Z,83.95
2023-02-24T02:10:29.000Z,83.98
2023-02-24T02:11:29.000Z,84.01
2023-02-24T02:12:33.000Z,84.18
2023-02-24T02:13:29.000Z,84.05
2023-02-24T02:14:30.000Z,84.33
2023-02-24T02:15:35.000Z,84.44
2023-02-24T02:16:39.000Z,84.25
2023-02-24T02:17:49.000Z,84.24
2023-02-24T02:18:57.000Z,84.25
2023-02-24T02:19:52.000Z,84.24
2023-02-24T02:20:40.000Z,84.15
2023-02-24T02:21:39.000Z,84.19
2023-02-24T02:22:39.000Z,84.22
2023-02-24T02:23:52.000Z,84.42
2023-02-24T02:24:38.000Z,84.25
2023-02-24T02:25:46.000Z,84.51
2023-02-24T02:26:39.000Z,84.21
2023-02-24T02:27:47.000Z,84.33
2023-02-24T02:28:50.000Z,83.90
2023-02-24T02:29:51.000Z,83.73
2023-02-24T02:30:50.000Z,83.72
2023-02-24T02:31:39.000Z,83.79
2023-02-24T02:32:40.000Z,83.72
2023-02-24T02:33:39.000Z,83.95
2023-02-24T02:34:43.000Z,83.58
2023-02-24T02:35:38.000Z,83.64
2023-02-24T02:36:53.000Z,83.56
2023-02-24T02:37:34.000Z,83.41
2023-02-24T02:38:39.000Z,83.31
2023-02-24T02:39:52.000Z,83.42
2023-02-24T02:40:38.000Z,83.25
2023-02-24T02:41:37.000Z,83.14
2023-02-24T02:42:49.000Z,83.17
2023-02-24T02:43:36.000Z,82.83
2023-02-24T02:44:45.000Z,82.78
2023-02-24T02:45:51.000Z,83.07
2023-02-24T02:46:40.000Z,82.89
2023-02-24T02:47:49.000Z,82.86
2023-02-24T02:48:36.000Z,82.69
2023-02-24T02:49:35.000Z,82.88
2023-02-24T02:50:51.000Z,82.73
2023-02-24T02:51:34.000Z,82.74
2023-02-24T02:52:35.000Z,82.80
2023-02-24T02:53:49.000Z,82.80
2023-02-24T02:54:42.000Z,82.55
2023-02-24T02:55:39.000Z,82.87
2023-02-24T02:56:40.000Z,82.96
2023-02-24T02:57:30.000Z,82.68
2023-02-24T02:58:34.000Z,82.86
2023-02-24T02:59:33.000Z,82.59
2023-02-24T03:00:36.000Z,83.00
2023-02-24T03:01:33.000Z,83.13
2023-02-24T03:02:31.000Z,82.87
2023-02-24T03:03:36.000Z,82.81
2023-02-24T03:04:28.000Z,82.61
2023-02-24T03:05:34.000Z,82.83
2023-02-24T03:06:36.000Z,82.69
2023-02-24T03:07:35.000Z,82.82
2023-02-24T03:08:32.000Z,82.74
2023-02-24T03:09:33.000Z,82.69
2023-02-24T03:10:32.000Z,82.78
2023-02-24T03:11:31.000Z,82.47
2023-02-24T03:12:32.000Z,82.52
2023-02-24T03:13:34.000Z,82.48
2023-02-24T03:14:31.000Z,82.68
2023-02-24T03:15:31.000Z,82.69
2023-02-24T03:16:30.000Z,82.90
2023-02-24T03:17:34.000Z,82.44
2023-02-24T03:18:33.000Z,82.63
2023-02-24T03:19:35.000Z,82.52
2023-02-24T03:20:36.000Z,82.43
2023-02-24T03:21:42.000Z,82.69
2023-02-24T03:22:33.000Z,82.44
2023-02-24T03:23:37.000Z,82.53
2023-02-24T03:24:28.000Z,82.71
2023-02-24T03:25:40.000Z,82.57
2023-02-24T03:26:34.000Z,82.71
2023-02-24T03:27:36.000Z,82.57
2023-02-24T03:28:34.000Z,82.53
2023-02-24T03:29:40.000Z,82.61
2023-02-24T03:30:39.000Z,82.73
2023-02-24T03:31:49.000Z,82.62
2023-02-24T03:32:39.000Z,82.21
2023-02-24T03:33:35.000Z,82.49
2023-02-24T03:34:39.000Z,82.72
2023-02-24T03:35:32.000Z,82.55
2023-02-24T03:36:29.000Z,82.28
2023-02-24T03:37:29.000Z,82.55
2023-02-24T03:38:31.000Z,82.43
2023-02-24T03:39:29.000Z,82.37
2023-02-24T03:40:32.000Z,82.43
2023-02-24T03:41:36.000Z,82.34
2023-02-24T03:42:32.000Z,82.32
2023-02-24T03:43:32.000Z,82.33
2023-02-24T03:44:30.000Z,82.33
2023-02-24T03:45:33.000Z,82.19
2023-02-24T03:46:30.000Z,82.37
2023-02-24T03:47:30.000Z,82.25
2023-02-24T03:48:33.000Z,82.32
2023-02-24T03:49:29.000Z,82.10
2023-02-24T03:50:31.000Z,82.40
2023-02-24T03:51:30.000Z,82.41
2023-02-24T03:52:45.000Z,82.70
2023-02-24T03:53:52.000Z,82.98
2023-02-24T03:54:49.000Z,82.90
2023-02-24T03:56:05.000Z,83.23
2023-02-24T03:56:44.000Z,83.27
2023-02-24T03:57:43.000Z,83.17
2023-02-24T03:58:43.000Z,83.28
2023-02-24T03:59:47.000Z,83.18
2023-02-24T04:00:46.000Z,83.27
2023-02-24T04:01:43.000Z,83.08
2023-02-24T04:02:32.000Z,83.25
2023-02-24T04:03:52.000Z,83.22
2023-02-24T04:04:40.000Z,83.21
2023-02-24T04:05:35.000Z,83.31
2023-02-24T04:06:39.000Z,83.20
2023-02-24T04:07:39.000Z,83.16
2023-02-24T04:08:39.000Z,83.00
2023-02-24T04:09:52.000Z,83.14
2023-02-24T04:10:50.000Z,83.25
2023-02-24T04:11:38.000Z,83.04
2023-02-24T04:12:41.000Z,82.96
2023-02-24T04:13:43.000Z,83.18
2023-02-24T04:14:36.000Z,83.20
2023-02-24T04:15:51.000Z,83.30
2023-02-24T04:16:45.000Z,83.15
2023-02-24T04:17:40.000Z,83.41
2023-02-24T04:18:31.000Z,83.21
2023-02-24T04:19:36.000Z,83.17
2023-02-24T04:20:32.000Z,83.04
2023-02-24T04:21:30.000Z,82.93
2023-02-24T04:22:32.000Z,82.99
2023-02-24T04:23:34.000Z,83.33
2023-02-24T04:24:30.000Z,83.20
2023-02-24T04:25:30.000Z,83.22
2023-02-24T04:26:29.000Z,83.20
2023-02-24T04:27:29.000Z,83.27
2023-02-24T04:28:29.000Z,83.19
2023-02-24T04:29:39.000Z,83.36
2023-02-24T04:30:33.000Z,83.25
2023-02-24T04:31:30.000Z,83.31
2023-02-24T04:32:29.000Z,83.01
2023-02-24T04:33:29.000Z,82.82
2023-02-24T04:34:31.000Z,83.00
2023-02-24T04:35:29.000Z,83.05
2023-02-24T04:36:29.000Z,82.78
2023-02-24T04:37:32.000Z,82.92
2023-02-24T04:38:29.000Z,82.93
2023-02-24T04:39:29.000Z,83.17
2023-02-24T04:40:29.000Z,82.97
2023-02-24T04:41:29.000Z,83.04
2023-02-24T04:42:28.000Z,82.85
2023-02-24T04:43:29.000Z,83.14
2023-02-24T04:44:29.000Z,83.27
2023-02-24T04:45:29.000Z,83.13
2023-02-24T04:46:30.000Z,83.13
2023-02-24T04:47:28.000Z,83.07
2023-02-24T04:48:28.000Z,82.93
2023-02-24T04:49:29.000Z,82.87
2023-02-24T04:50:34.000Z,83.04
2023-02-24T04:51:30.000Z,83.19
2023-02-24T04:52:28.000Z,83.11
2023-02-24T04:53:28.000Z,83.12
2023-02-24T04:54:29.000Z,82.98
2023-02-24T04:55:35.000Z,83.16
2023-02-24T04:56:28.000Z,83.46
2023-02-24T04:57:28.000Z,83.38
2023-02-24T04:58:29.000Z,83.32
2023-02-24T04:59:28.000Z,83.31
2023-02-24T05:00:33.000Z,83.18
2023-02-24T05:01:29.000Z,83.10
2023-02-24T05:02:28.000Z,83.09
2023-02-24T05:03:28.000Z,83.07
2023-02-24T05:04:34.000Z,82.97
2023-02-24T05:05:32.000Z,82.86
2023-02-24T05:06:28.000Z,82.82
2023-02-24T05:07:28.000Z,82.76
2023-02-24T05:08:29.000Z,82.74
2023-02-24T05:09:28.000Z,82.66
2023-02-24T05:10:34.000Z,82.55
2023-02-24T05:11:33.000Z,82.37
2023-02-24T05:12:29.000Z,82.51
2023-02-24T05:13:31.000Z,82.59
2023-02-24T05:14:29.000Z,82.55
2023-02-24T05:15:32.000Z,82.22
2023-02-24T05:16:29.000Z,82.24
2023-02-24T05:17:29.000Z,82.28
2023-02-24T05:18:35.000Z,82.88
2023-02-24T05:19:33.000Z,82.58
2023-02-24T05:20:35.000Z,82.56
2023-02-24T05:21:33.000Z,82.66
2023-02-24T05:22:28.000Z,82.77
2023-02-24T05:23:33.000Z,82.62
2023-02-24T05:24:29.000Z,82.55
2023-02-24T05:25:29.000Z,82.71
2023-02-24T05:26:31.000Z,82.67
2023-02-24T05:27:28.000Z,82.98
2023-02-24T05:28:30.000Z,82.77
2023-02-24T05:29:31.000Z,82.96
2023-02-24T05:30:29.000Z,82.88
2023-02-24T05:31:29.000Z,82.85
2023-02-24T05:32:28.000Z,82.70
2023-02-24T05:33:28.000Z,82.69
2023-02-24T05:34:30.000Z,82.75
2023-02-24T05:35:34.000Z,82.76
2023-02-24T05:36:38.000Z,82.53
2023-02-24T05:37:29.000Z,82.56
2023-02-24T05:38:29.000Z,82.70
2023-02-24T05:39:29.000Z,82.63
2023-02-24T05:40:29.000Z,82.56
2023-02-24T05:41:36.000Z,82.63
2023-02-24T05:42:33.000Z,82.49
2023-02-24T05:43:30.000Z,82.52
2023-02-24T05:44:30.000Z,83.11
2023-02-24T05:45:29.000Z,82.86
2023-02-24T05:46:35.000Z,82.86
2023-02-24T05:47:29.000Z,82.88
2023-02-24T05:48:33.000Z,82.86
2023-02-24T05:49:33.000Z,82.51
2023-02-24T05:50:31.000Z,82.36
2023-02-24T05:51:36.000Z,82.34
2023-02-24T05:52:29.000Z,82.24
2023-02-24T05:53:29.000Z,82.14
2023-02-24T05:54:35.000Z,82.02
2023-02-24T05:55:32.000Z,81.96
2023-02-24T05:56:35.000Z,82.01
2023-02-24T05:57:34.000Z,82.01
2023-02-24T05:58:29.000Z,82.01
2023-02-24T05:59:32.000Z,81.99
2023-02-24T06:00:29.000Z,81.95
2023-02-24T06:01:36.000Z,81.86
2023-02-24T06:02:36.000Z,81.88
2023-02-24T06:03:29.000Z,81.81
2023-02-24T06:04:36.000Z,81.78
2023-02-24T06:05:29.000Z,81.75
2023-02-24T06:06:29.000Z,81.80
2023-02-24T06:07:32.000Z,81.86
2023-02-24T06:08:35.000Z,81.78
2023-02-24T06:09:28.000Z,81.71
2023-02-24T06:10:31.000Z,81.61
2023-02-24T06:11:28.000Z,81.84
2023-02-24T06:12:31.000Z,81.75
2023-02-24T06:13:28.000Z,81.87
2023-02-24T06:14:28.000Z,81.99
2023-02-24T06:15:29.000Z,82.21
2023-02-24T06:16:29.000Z,82.17
2023-02-24T06:17:28.000Z,82.13
2023-02-24T06:18:28.000Z,82.26
2023-02-24T06:19:32.000Z,82.29
2023-02-24T06:20:31.000Z,82.39
2023-02-24T06:21:29.000Z,82.39
2023-02-24T06:22:31.000Z,82.72
2023-02-24T06:23:28.000Z,82.54
2023-02-24T06:24:30.000Z,82.31
2023-02-24T06:25:31.000Z,82.56
2023-02-24T06:26:31.000Z,82.81
2023-02-24T06:27:28.000Z,82.56
2023-02-24T06:28:29.000Z,82.44
2023-02-24T06:29:29.000Z,82.65
2023-02-24T06:30:31.000Z,82.74
2023-02-24T06:31:29.000Z,82.35
2023-02-24T06:32:28.000Z,82.47
2023-02-24T06:33:29.000Z,82.45
2023-02-24T06:34:29.000Z,82.39
2023-02-24T06:35:31.000Z,82.44
2023-02-24T06:36:28.000Z,82.33
2023-02-24T06:37:28.000Z,82.37
2023-02-24T06:38:30.000Z,82.30
2023-02-24T06:39:30.000Z,82.26
2023-02-24T06:40:29.000Z,82.18
2023-02-24T06:41:28.000Z,82.20
2023-02-24T06:42:29.000Z,82.18
2023-02-24T06:43:29.000Z,82.20
2023-02-24T06:44:29.000Z,82.23
2023-02-24T06:45:30.000Z,82.12
2023-02-24T06:46:30.000Z,82.13
2023-02-24T06:47:29.000Z,81.94
2023-02-24T06:48:29.000Z,81.98
2023-02-24T06:49:29.000Z,82.04
2023-02-24T06:50:29.000Z,82.06
2023-02-24T06:51:29.000Z,82.12
2023-02-24T06:52:29.000Z,82.11
2023-02-24T06:53:31.000Z,82.05
2023-02-24T06:54:29.000Z,82.03
2023-02-24T06:55:28.000Z,82.07
2023-02-24T06:56:28.000Z,82.15
2023-02-24T06:57:31.000Z,81.98
2023-02-24T06:58:30.000Z,82.19
2023-02-24T06:59:29.000Z,82.73
2023-02-24T07:00:34.000Z,82.59
2023-02-24T07:01:28.000Z,82.93
2023-02-24T07:02:38.000Z,82.70
2023-02-24T07:03:34.000Z,82.59
2023-02-24T07:04:29.000Z,82.47
2023-02-24T07:05:32.000Z,82.63
2023-02-24T07:06:31.000Z,82.49
2023-02-24T07:07:29.000Z,82.34
2023-02-24T07:08:29.000Z,82.87
2023-02-24T07:09:31.000Z,82.91
2023-02-24T07:10:28.000Z,83.08
2023-02-24T07:11:29.000Z,83.07
2023-02-24T07:12:28.000Z,83.08
2023-02-24T07:13:28.000Z,82.84
2023-02-24T07:14:32.000Z,82.97
2023-02-24T07:15:33.000Z,83.07
2023-02-24T07:16:29.000Z,82.95
2023-02-24T07:17:29.000Z,82.84
2023-02-24T07:18:29.000Z,82.88
2023-02-24T07:19:30.000Z,82.84
2023-02-24T07:20:29.000Z,82.85
2023-02-24T07:21:29.000Z,82.87
2023-02-24T07:22:30.000Z,82.68
2023-02-24T07:23:29.000Z,82.72
2023-02-24T07:24:33.000Z,83.00
2023-02-24T07:25:31.000Z,83.34
2023-02-24T07:26:29.000Z,83.15
2023-02-24T07:27:28.000Z,83.13
2023-02-24T07:28:28.000Z,83.02
2023-02-24T07:29:29.000Z,82.91
2023-02-24T07:30:30.000Z,82.91
2023-02-24T07:31:30.000Z,83.02
2023-02-24T07:32:28.000Z,82.89
2023-02-24T07:33:28.000Z,82.62
2023-02-24T07:34:29.000Z,82.89
2023-02-24T07:35:29.000Z,82.89
2023-02-24T07:36:29.000Z,82.76
2023-02-24T07:37:30.000Z,82.74
2023-02-24T07:38:28.000Z,82.72
2023-02-24T07:39:28.000Z,82.96
2023-02-24T07:40:31.000Z,82.86
2023-02-24T07:41:28.000Z,82.66
2023-02-24T07:42:33.000Z,82.68
2023-02-24T07:43:29.000Z,82.61
2023-02-24T07:44:29.000Z,82.65
2023-02-24T07:45:28.000Z,82.66
2023-02-24T07:46:29.000Z,82.28
2023-02-24T07:47:30.000Z,82.20
2023-02-24T07:48:29.000Z,82.18
2023-02-24T07:49:28.000Z,82.48
2023-02-24T07:50:31.000Z,82.42
2023-02-24T07:51:29.000Z,82.33
2023-02-24T07:52:31.000Z,82.38
2023-02-24T07:53:28.000Z,82.56
2023-02-24T07:54:29.000Z,82.43
2023-02-24T07:55:33.000Z,82.42
2023-02-24T07:56:30.000Z,82.36
2023-02-24T07:57:31.000Z,82.28
2023-02-24T07:58:29.000Z,82.37
2023-02-24T07:59:31.000Z,82.38
2023-02-24T08:00:28.000Z,82.56
2023-02-24T08:01:32.000Z,82.45
2023-02-24T08:02:28.000Z,82.40
2023-02-24T08:03:29.000Z,82.51
2023-02-24T08:04:29.000Z,82.31
2023-02-24T08:05:29.000Z,82.26
2023-02-24T08:06:39.000Z,82.27
2023-02-24T08:07:29.000Z,82.16
2023-02-24T08:08:28.000Z,82.30
2023-02-24T08:09:34.000Z,82.49
2023-02-24T08:10:35.000Z,82.47
2023-02-24T08:11:34.000Z,82.63
2023-02-24T08:12:29.000Z,82.62
2023-02-24T08:13:35.000Z,82.54
2023-02-24T08:14:33.000Z,82.82
2023-02-24T08:15:32.000Z,82.75
2023-02-24T08:16:34.000Z,82.48
2023-02-24T08:17:29.000Z,82.66
2023-02-24T08:18:35.000Z,82.53
2023-02-24T08:19:38.000Z,82.53
2023-02-24T08:20:34.000Z,82.35
2023-02-24T08:21:37.000Z,82.49
2023-02-24T08:22:35.000Z,82.62
2023-02-24T08:23:33.000Z,82.24
2023-02-24T08:24:29.000Z,82.65
2023-02-24T08:25:33.000Z,82.23
2023-02-24T08:26:30.000Z,82.36
2023-02-24T08:27:29.000Z,82.61
2023-02-24T08:28:29.000Z,82.45
2023-02-24T08:29:35.000Z,82.30
2023-02-24T08:30:29.000Z,82.47
2023-02-24T08:31:28.000Z,82.43
2023-02-24T08:32:35.000Z,82.58
2023-02-24T08:33:29.000Z,82.76
2023-02-24T08:34:30.000Z,82.78
2023-02-24T08:35:37.000Z,82.63
2023-02-24T08:36:29.000Z,82.58
2023-02-24T08:37:33.000Z,82.65
2023-02-24T08:38:38.000Z,82.74
2023-02-24T08:39:32.000Z,82.96
2023-02-24T08:40:49.000Z,82.71
2023-02-24T08:41:43.000Z,82.33
2023-02-24T08:42:33.000Z,82.52
2023-02-24T08:43:37.000Z,82.18
2023-02-24T08:44:29.000Z,82.29
2023-02-24T08:45:31.000Z,82.31
2023-02-24T08:46:36.000Z,82.36
2023-02-24T08:47:34.000Z,82.27
2023-02-24T08:48:54.000Z,82.38
2023-02-24T08:49:31.000Z,81.88
2023-02-24T08:50:32.000Z,81.63
2023-02-24T08:51:33.000Z,81.80
2023-02-24T08:52:28.000Z,81.82
2023-02-24T08:53:30.000Z,81.88
2023-02-24T08:54:30.000Z,82.15
2023-02-24T08:55:31.000Z,82.14
2023-02-24T08:56:30.000Z,81.94
2023-02-24T08:57:30.000Z,81.94
2023-02-24T08:58:29.000Z,81.71
2023-02-24T08:59:35.000Z,81.80
2023-02-24T09:00:33.000Z,81.91
2023-02-24T09:01:36.000Z,81.28
2023-02-24T09:02:28.000Z,81.20
2023-02-24T09:03:31.000Z,81.24
2023-02-24T09:04:28.000Z,81.36
2023-02-24T09:05:31.000Z,81.46
2023-02-24T09:06:40.000Z,81.55
2023-02-24T09:07:38.000Z,81.27
2023-02-24T09:08:32.000Z,80.89
2023-02-24T09:09:28.000Z,80.90
2023-02-24T09:10:29.000Z,80.82
2023-02-24T09:11:29.000Z,80.75
2023-02-24T09:12:29.000Z,80.78
2023-02-24T09:13:36.000Z,80.60
2023-02-24T09:14:30.000Z,80.18
2023-02-24T09:15:39.000Z,80.42
2023-02-24T09:16:29.000Z,80.20
2023-02-24T09:17:34.000Z,79.95
2023-02-24T09:18:29.000Z,80.08
2023-02-24T09:19:40.000Z,79.95
2023-02-24T09:20:34.000Z,80.26
2023-02-24T09:21:35.000Z,80.22
2023-02-24T09:22:31.000Z,79.75
2023-02-24T09:23:28.000Z,80.08
2023-02-24T09:24:30.000Z,80.19
2023-02-24T09:25:37.000Z,79.91
2023-02-24T09:26:33.000Z,79.97
2023-02-24T09:27:29.000Z,79.67
2023-02-24T09:28:31.000Z,79.59
2023-02-24T09:29:34.000Z,79.83
2023-02-24T09:30:37.000Z,79.54
2023-02-24T09:31:39.000Z,79.12
2023-02-24T09:32:29.000Z,79.06
2023-02-24T09:33:37.000Z,79.35
2023-02-24T09:34:35.000Z,78.70
2023-02-24T09:35:30.000Z,78.78
2023-02-24T09:36:29.000Z,78.81
2023-02-24T09:37:30.000Z,78.72
2023-02-24T09:38:36.000Z,79.08
2023-02-24T09:39:34.000Z,78.79
2023-02-24T09:40:37.000Z,78.50
2023-02-24T09:41:54.000Z,78.43
2023-02-24T09:42:31.000Z,78.44
2023-02-24T09:43:28.000Z,78.49
2023-02-24T09:44:38.000Z,78.45
2023-02-24T09:45:31.000Z,78.28
2023-02-24T09:46:34.000Z,78.05
2023-02-24T09:47:38.000Z,77.35
2023-02-24T09:48:34.000Z,77.47
2023-02-24T09:49:47.000Z,77.16
2023-02-24T09:50:35.000Z,77.62
2023-02-24T09:51:31.000Z,77.92
2023-02-24T09:52:33.000Z,77.73
2023-02-24T09:53:37.000Z,77.33
2023-02-24T09:54:32.000Z,76.69
2023-02-24T09:55:38.000Z,76.72
2023-02-24T09:56:36.000Z,76.96
2023-02-24T09:57:44.000Z,76.68
2023-02-24T09:58:48.000Z,76.63
2023-02-24T09:59:40.000Z,76.75
2023-02-24T10:00:34.000Z,76.91
2023-02-24T10:01:40.000Z,77.31
2023-02-24T10:02:40.000Z,77.28
2023-02-24T10:03:43.000Z,77.34
2023-02-24T10:04:38.000Z,76.87
2023-02-24T10:05:44.000Z,76.27
2023-02-24T10:06:40.000Z,76.17
2023-02-24T10:07:40.000Z,76.12
2023-02-24T10:08:35.000Z,75.71
2023-02-24T10:09:40.000Z,75.93
2023-02-24T10:10:34.000Z,76.06
2023-02-24T10:11:32.000Z,76.03
2023-02-24T10:12:34.000Z,76.10
2023-02-24T10:13:30.000Z,76.01
2023-02-24T10:14:39.000Z,76.59
2023-02-24T10:15:47.000Z,76.49
2023-02-24T10:16:43.000Z,76.36
2023-02-24T10:17:39.000Z,76.16
2023-02-24T10:18:44.000Z,76.37
2023-02-24T10:19:30.000Z,75.99
2023-02-24T10:20:38.000Z,76.07
2023-02-24T10:21:40.000Z,76.32
2023-02-24T10:22:44.000Z,76.21
2023-02-24T10:23:51.000Z,75.87
2023-02-24T10:24:45.000Z,76.11
2023-02-24T10:25:45.000Z,75.59
2023-02-24T10:26:54.000Z,75.80
2023-02-24T10:27:40.000Z,75.53
2023-02-24T10:28:57.000Z,75.90
2023-02-24T10:29:39.000Z,75.77
2023-02-24T10:31:02.000Z,75.77
2023-02-24T10:31:42.000Z,75.70
2023-02-24T10:32:42.000Z,75.60
2023-02-24T10:33:40.000Z,75.15
2023-02-24T10:34:31.000Z,75.48
2023-02-24T10:35:38.000Z,74.98
2023-02-24T10:36:34.000Z,74.73
2023-02-24T10:37:29.000Z,74.66
2023-02-24T10:38:29.000Z,74.69
2023-02-24T10:39:32.000Z,74.09
2023-02-24T10:40:51.000Z,74.46
2023-02-24T10:41:29.000Z,74.47
2023-02-24T10:42:33.000Z,74.85
2023-02-24T10:43:32.000Z,74.40
2023-02-24T10:44:34.000Z,74.16
2023-02-24T10:45:39.000Z,73.84
2023-02-24T10:46:34.000Z,74.36
2023-02-24T10:47:33.000Z,74.46
2023-02-24T10:48:33.000Z,73.37
2023-02-24T10:49:29.000Z,73.51
2023-02-24T10:50:39.000Z,73.37
2023-02-24T10:51:37.000Z,73.54
2023-02-24T10:52:41.000Z,73.88
2023-02-24T10:53:34.000Z,73.93
2023-02-24T10:54:47.000Z,74.04
2023-02-24T10:55:41.000Z,73.90
2023-02-24T10:56:40.000Z,73.51
2023-02-24T10:57:43.000Z,73.72
2023-02-24T10:58:36.000Z,73.50
2023-02-24T10:59:46.000Z,73.73
2023-02-24T11:00:47.000Z,74.03
2023-02-24T11:01:35.000Z,74.00
2023-02-24T11:02:35.000Z,73.97
2023-02-24T11:03:37.000Z,74.34
2023-02-24T11:04:36.000Z,74.48
2023-02-24T11:05:39.000Z,74.19
2023-02-24T11:06:34.000Z,73.84
2023-02-24T11:07:42.000Z,73.70
2023-02-24T11:08:35.000Z,73.74
2023-02-24T11:09:35.000Z,73.81
2023-02-24T11:10:43.000Z,73.57
2023-02-24T11:11:33.000Z,73.75
2023-02-24T11:12:33.000Z,73.47
2023-02-24T11:13:35.000Z,73.48
2023-02-24T11:14:46.000Z,73.62
2023-02-24T11:15:36.000Z,73.20
2023-02-24T11:16:43.000Z,72.96
2023-02-24T11:17:28.000Z,73.23
2023-02-24T11:18:29.000Z,73.24
2023-02-24T11:19:31.000Z,73.26
2023-02-24T11:20:38.000Z,73.15
2023-02-24T11:21:28.000Z,72.99
2023-02-24T11:22:39.000Z,73.17
2023-02-24T11:23:36.000Z,72.55
2023-02-24T11:24:29.000Z,72.39
2023-02-24T11:25:36.000Z,72.41
2023-02-24T11:26:34.000Z,72.52
2023-02-24T11:27:28.000Z,72.09
2023-02-24T11:28:51.000Z,71.81
2023-02-24T11:29:41.000Z,71.19
2023-02-24T11:30:41.000Z,71.20
2023-02-24T11:31:52.000Z,71.35
2023-02-24T11:32:44.000Z,71.19
2023-02-24T11:33:38.000Z,71.13
2023-02-24T11:34:46.000Z,71.46
2023-02-24T11:35:40.000Z,71.09
2023-02-24T11:36:45.000Z,70.43
2023-02-24T11:37:39.000Z,70.76
2023-02-24T11:38:38.000Z,70.32
2023-02-24T11:39:46.000Z,70.06
2023-02-24T11:40:37.000Z,69.96
2023-02-24T11:41:42.000Z,69.80
2023-02-24T11:42:40.000Z,69.80
2023-02-24T11:43:34.000Z,68.90
2023-02-24T11:44:33.000Z,68.38
2023-02-24T11:45:33.000Z,67.99
2023-02-24T11:46:39.000Z,68.08
2023-02-24T11:47:37.000Z,68.63
2023-02-24T11:48:36.000Z,68.45
2023-02-24T11:49:38.000Z,69.03
2023-02-24T11:50:37.000Z,69.35
2023-02-24T11:51:32.000Z,69.26
2023-02-24T11:52:34.000Z,69.11
2023-02-24T11:53:48.000Z,69.37
2023-02-24T11:54:37.000Z,69.71
2023-02-24T11:55:41.000Z,69.21
2023-02-24T11:56:34.000Z,69.19
2023-02-24T11:57:38.000Z,68.93
2023-02-24T11:58:38.000Z,68.42
2023-02-24T11:59:35.000Z,68.58
2023-02-24T12:00:33.000Z,68.39
2023-02-24T12:01:38.000Z,68.49
2023-02-24T12:02:39.000Z,68.41
2023-02-24T12:03:37.000Z,68.80
2023-02-24T12:04:40.000Z,68.83
2023-02-24T12:05:32.000Z,69.21
2023-02-24T12:06:37.000Z,68.92
2023-02-24T12:07:34.000Z,69.01
2023-02-24T12:08:34.000Z,69.67
2023-02-24T12:09:34.000Z,69.64
2023-02-24T12:10:33.000Z,69.67
2023-02-24T12:11:40.000Z,69.72
2023-02-24T12:12:37.000Z,69.72
2023-02-24T12:13:39.000Z,70.08
2023-02-24T12:14:50.000Z,69.98
2023-02-24T12:15:40.000Z,69.67
2023-02-24T12:16:34.000Z,69.22
2023-02-24T12:17:39.000Z,69.55
2023-02-24T12:18:35.000Z,68.55
2023-02-24T12:19:39.000Z,67.20
2023-02-24T12:20:36.000Z,66.74
2023-02-24T12:21:37.000Z,66.30
2023-02-24T12:22:42.000Z,65.74
2023-02-24T12:23:35.000Z,66.28
2023-02-24T12:24:29.000Z,66.87
2023-02-24T12:25:46.000Z,66.83
2023-02-24T12:26:38.000Z,67.38
2023-02-24T12:27:52.000Z,66.72
2023-02-24T12:28:52.000Z,67.12
2023-02-24T12:29:51.000Z,67.21
2023-02-24T12:30:45.000Z,67.20
2023-02-24T12:31:52.000Z,67.62
2023-02-24T12:32:55.000Z,67.27
2023-02-24T12:33:39.000Z,68.09
2023-02-24T12:34:39.000Z,68.10
2023-02-24T12:35:43.000Z,68.36
2023-02-24T12:36:39.000Z,68.17
2023-02-24T12:37:49.000Z,68.65
2023-02-24T12:38:46.000Z,68.61
2023-02-24T12:39:44.000Z,68.31
2023-02-24T12:40:39.000Z,68.88
2023-02-24T12:41:54.000Z,69.03
2023-02-24T12:43:02.000Z,69.03
2023-02-24T12:43:47.000Z,68.24
2023-02-24T12:44:37.000Z,68.56
2023-02-24T12:45:52.000Z,67.97
2023-02-24T12:46:38.000Z,67.68
2023-02-24T12:47:55.000Z,67.81
2023-02-24T12:48:39.000Z,68.01
2023-02-24T12:49:53.000Z,68.25
2023-02-24T12:50:44.000Z,68.66
2023-02-24T12:51:52.000Z,69.07
2023-02-24T12:52:41.000Z,69.31